Time;durP1;ratioP1;P1;durP2;ratioP2;P2;SDS_P1;SDS_P2;PMS_P1;PMS_P2;Temp;Humidity;BMP_temperature;BMP_pressure;BME280_temperature;BME280_humidity;BME280_pressure;Samples;Min_cycle;Max_cycle;Signal;HPM_P1;HPM_P2
2021/08/10 00:00:41;;;;;;;3.85;2.45;;;;;;;15.00;100.00;101360.53;6297722;28;20053;-83
2021/08/10 00:03:44;;;;;;;4.55;2.40;;;;;;;14.95;100.00;101355.53;6297781;28;20052;-83
2021/08/10 00:06:45;;;;;;;4.38;2.05;;;;;;;14.90;100.00;101357.59;6297276;28;20052;-83
2021/08/10 00:09:47;;;;;;;3.55;2.13;;;;;;;14.89;100.00;101357.69;6298076;28;20044;-84
2021/08/10 00:12:48;;;;;;;4.72;2.10;;;;;;;14.85;100.00;101353.53;6297617;28;20056;-83
2021/08/10 00:15:49;;;;;;;5.30;2.50;;;;;;;14.86;100.00;101353.44;6297186;28;20053;-84
2021/08/10 00:18:52;;;;;;;5.85;2.53;;;;;;;14.81;100.00;101349.38;6297410;28;20040;-83
2021/08/10 00:21:53;;;;;;;7.45;2.35;;;;;;;14.77;100.00;101355.81;6297084;28;20055;-83
2021/08/10 00:24:55;;;;;;;5.30;2.28;;;;;;;14.69;100.00;101348.34;6295928;28;20044;-83
2021/08/10 00:27:57;;;;;;;9.05;2.22;;;;;;;14.71;100.00;101346.44;6296176;28;20056;-83
2021/08/10 00:30:58;;;;;;;5.13;2.60;;;;;;;14.67;100.00;101339.63;6296286;28;20040;-83
2021/08/10 00:34:01;;;;;;;5.22;2.50;;;;;;;14.62;100.00;101342.53;6295917;28;20079;-83
2021/08/10 00:37:04;;;;;;;4.78;2.58;;;;;;;14.63;100.00;101322.25;6296253;28;20068;-83
2021/08/10 00:40:07;;;;;;;3.38;2.30;;;;;;;14.55;100.00;101329.81;6297899;28;20438;-84
2021/08/10 00:43:30;;;;;;;3.72;2.22;;;;;;;14.55;100.00;101341.22;6300717;28;20407;-83
2021/08/10 00:46:32;;;;;;;3.55;2.17;;;;;;;14.54;100.00;101346.63;6300724;28;20051;-84
2021/08/10 00:49:35;;;;;;;4.75;2.30;;;;;;;14.53;100.00;101348.41;6300837;28;20048;-83
2021/08/10 00:52:37;;;;;;;10.52;2.33;;;;;;;14.51;100.00;101344.16;6300913;28;20052;-83
2021/08/10 00:55:38;;;;;;;4.35;2.28;;;;;;;14.43;100.00;101342.78;6300435;28;20052;-83
2021/08/10 00:58:40;;;;;;;3.75;2.00;;;;;;;14.42;100.00;101342.88;6300672;28;20071;-83
2021/08/10 01:01:41;;;;;;;6.72;2.20;;;;;;;14.37;100.00;101335.22;6300169;28;20052;-83
2021/08/10 01:04:44;;;;;;;3.63;2.05;;;;;;;14.32;100.00;101337.28;6300289;28;20040;-82
2021/08/10 01:07:53;;;;;;;3.72;2.30;;;;;;;14.27;100.00;101346.44;6300492;28;20052;-83
2021/08/10 01:11:03;;;;;;;4.97;2.70;;;;;;;14.25;100.00;101343.88;6300391;28;20051;-83
2021/08/10 01:14:13;;;;;;;5.10;2.35;;;;;;;14.21;100.00;101348.47;6299953;28;20290;-83
2021/08/10 01:17:21;;;;;;;4.05;2.28;;;;;;;14.17;100.00;101333.78;6300305;28;20048;-83
2021/08/10 01:20:38;;;;;;;6.43;2.10;;;;;;;14.15;100.00;101338.28;6300968;28;20101;-84
2021/08/10 01:23:40;;;;;;;4.30;2.25;;;;;;;14.11;100.00;101338.56;6300013;28;20048;-83
2021/08/10 01:26:54;;;;;;;4.43;2.10;;;;;;;14.11;100.00;101331.47;6299980;28;20430;-83
2021/08/10 01:30:04;;;;;;;6.88;2.70;;;;;;;14.10;100.00;101329.78;6300014;28;20052;-82
2021/08/10 01:33:07;;;;;;;5.72;2.05;;;;;;;14.09;100.00;101335.16;6300110;28;20055;-83
2021/08/10 01:36:10;;;;;;;4.25;2.83;;;;;;;14.05;100.00;101334.47;6300086;28;20048;-82
2021/08/10 01:39:14;;;;;;;3.25;2.28;;;;;;;14.06;100.00;101330.03;6300592;28;20044;-83
2021/08/10 01:42:17;;;;;;;6.07;2.95;;;;;;;14.06;100.00;101327.41;6300876;28;20048;-82
2021/08/10 01:45:18;;;;;;;5.03;2.47;;;;;;;14.00;100.00;101328.63;6300322;28;20518;-82
2021/08/10 01:48:22;;;;;;;4.45;2.30;;;;;;;13.98;100.00;101330.47;6301465;28;20052;-83
2021/08/10 01:51:26;;;;;;;6.55;2.35;;;;;;;13.94;100.00;101332.47;6300159;28;20523;-82
2021/08/10 01:54:29;;;;;;;5.28;2.78;;;;;;;13.92;100.00;101328.22;6299849;28;20047;-82
2021/08/10 01:57:31;;;;;;;4.68;2.03;;;;;;;13.88;100.00;101321.41;6299601;28;20057;-82
2021/08/10 02:00:33;;;;;;;14.85;2.55;;;;;;;13.86;100.00;101321.50;6299580;28;20045;-83
2021/08/10 02:03:37;;;;;;;5.15;2.80;;;;;;;13.88;100.00;101318.75;6299068;28;20048;-83
2021/08/10 02:06:40;;;;;;;5.63;2.35;;;;;;;13.89;100.00;101323.09;6299553;28;20060;-83
2021/08/10 02:09:43;;;;;;;3.95;2.22;;;;;;;13.90;100.00;101327.47;6301561;28;20415;-83
2021/08/10 02:12:44;;;;;;;7.75;2.50;;;;;;;13.92;100.00;101326.41;6301282;28;20063;-83
2021/08/10 02:15:49;;;;;;;4.70;2.28;;;;;;;13.95;100.00;101328.03;6300109;28;20044;-83
2021/08/10 02:18:52;;;;;;;6.57;2.70;;;;;;;13.99;100.00;101328.69;6300203;28;20057;-83
2021/08/10 02:21:59;;;;;;;5.25;2.67;;;;;;;14.03;100.00;101327.56;6301094;28;20056;-83
2021/08/10 02:25:03;;;;;;;9.15;2.33;;;;;;;14.08;100.00;101333.44;6300870;28;20051;-82
2021/08/10 02:28:06;;;;;;;4.43;2.22;;;;;;;14.08;100.00;101334.31;6300883;28;20488;-83
2021/08/10 02:31:09;;;;;;;5.75;2.50;;;;;;;14.07;100.00;101335.22;6307200;28;20041;-83
2021/08/10 02:34:13;;;;;;;3.50;2.20;;;;;;;14.05;100.00;101325.72;6307025;28;20048;-82
2021/08/10 02:37:18;;;;;;;3.67;2.15;;;;;;;14.03;100.00;101324.94;6307242;28;20431;-83
2021/08/10 02:40:21;;;;;;;3.42;2.30;;;;;;;14.03;100.00;101322.28;6305240;28;20514;-83
2021/08/10 02:43:27;;;;;;;6.07;2.33;;;;;;;14.05;100.00;101315.97;6305432;28;20048;-83
2021/08/10 02:46:29;;;;;;;12.65;2.40;;;;;;;14.05;100.00;101321.28;6308156;28;20048;-83
2021/08/10 02:49:32;;;;;;;4.22;2.25;;;;;;;14.05;100.00;101318.63;6308323;28;20060;-83
2021/08/10 02:52:33;;;;;;;6.47;2.65;;;;;;;14.07;100.00;101318.53;6307077;28;20044;-84
2021/08/10 02:55:39;;;;;;;5.07;2.20;;;;;;;14.07;100.00;101311.44;6304274;28;20049;-83
2021/08/10 02:58:47;;;;;;;5.90;2.42;;;;;;;14.10;100.00;101318.34;6304174;28;20060;-82
2021/08/10 03:01:59;;;;;;;5.07;2.55;;;;;;;14.14;100.00;101317.22;6302131;28;20052;-83
2021/08/10 03:05:09;;;;;;;5.28;2.53;;;;;;;14.13;100.00;101307.59;6306512;28;20545;-84
2021/08/10 03:08:20;;;;;;;8.57;2.65;;;;;;;14.12;100.00;101303.25;6304692;28;20067;-82
2021/08/10 03:11:22;;;;;;;4.05;2.25;;;;;;;14.11;100.00;101309.47;6303681;28;20048;-83
2021/08/10 03:14:25;;;;;;;5.03;2.47;;;;;;;14.08;100.00;101307.00;6302989;28;20624;-82
2021/08/10 03:17:30;;;;;;;6.32;2.53;;;;;;;14.11;100.00;101306.84;6301144;28;20131;-83
2021/08/10 03:20:34;;;;;;;8.73;2.95;;;;;;;14.08;100.00;101310.53;6299387;28;20131;-83
2021/08/10 03:23:40;;;;;;;3.53;2.10;;;;;;;14.14;100.00;101314.59;6298567;28;20048;-83
2021/08/10 03:26:43;;;;;;;7.72;2.67;;;;;;;14.13;100.00;101315.53;6301461;28;20130;-83
2021/08/10 03:29:46;;;;;;;5.07;2.10;;;;;;;14.18;100.00;101314.31;6298819;28;20045;-82
2021/08/10 03:32:50;;;;;;;4.38;2.10;;;;;;;14.25;100.00;101320.09;6299131;28;20044;-83
2021/08/10 03:35:53;;;;;;;7.10;2.40;;;;;;;14.26;100.00;101320.94;6298614;28;20057;-83
2021/08/10 03:38:56;;;;;;;3.90;1.98;;;;;;;14.30;100.00;101325.09;6300063;28;20045;-83
2021/08/10 03:41:58;;;;;;;4.88;2.80;;;;;;;14.30;100.00;101325.09;6300478;28;20182;-84
2021/08/10 03:44:59;;;;;;;6.10;2.42;;;;;;;14.33;100.00;101328.41;6299850;28;20055;-83
2021/08/10 03:48:01;;;;;;;4.18;2.33;;;;;;;14.37;100.00;101327.28;6292261;28;20044;-83
2021/08/10 03:51:05;;;;;;;5.20;2.25;;;;;;;14.35;100.00;101323.91;6283965;28;20419;-83
2021/08/10 03:54:06;;;;;;;4.80;2.60;;;;;;;14.34;100.00;101330.09;6281139;28;20057;-82
2021/08/10 03:57:08;;;;;;;7.57;2.63;;;;;;;14.33;100.00;101319.63;6292308;28;20175;-83
2021/08/10 04:00:11;;;;;;;8.77;1.88;;;;;;;14.32;100.00;101321.44;6282511;28;20045;-83
2021/08/10 04:03:13;;;;;;;5.00;2.25;;;;;;;14.33;100.00;101330.22;6280065;28;20057;-84
2021/08/10 04:06:18;;;;;;;3.08;2.03;;;;;;;14.34;100.00;101326.63;6279749;28;20063;-82
2021/08/10 04:09:21;;;;;;;6.20;2.30;;;;;;;14.34;100.00;101316.88;6265934;28;20699;-83
2021/08/10 04:12:22;;;;;;;4.05;2.22;;;;;;;14.33;100.00;101312.53;6268828;28;20098;-83
2021/08/10 04:15:25;;;;;;;4.50;2.33;;;;;;;14.34;100.00;101302.81;6269341;28;20392;-83
2021/08/10 04:18:28;;;;;;;4.78;2.38;;;;;;;14.31;100.00;101310.97;6273080;28;20040;-83
2021/08/10 04:21:31;;;;;;;6.65;2.75;;;;;;;14.29;100.00;101308.38;6302472;28;20052;-85
2021/08/10 04:24:32;;;;;;;8.02;2.97;;;;;;;14.26;100.00;101319.16;6311675;28;20055;-84
2021/08/10 04:27:34;;;;;;;5.97;2.50;;;;;;;14.25;100.00;101317.44;6311611;28;20813;-84
2021/08/10 04:30:36;;;;;;;5.35;2.10;;;;;;;14.30;100.00;101327.72;6303274;28;20051;-83
2021/08/10 04:33:37;;;;;;;5.20;2.78;;;;;;;14.27;100.00;101323.50;6302430;28;20049;-82
2021/08/10 04:36:40;;;;;;;6.05;2.40;;;;;;;14.32;100.00;101320.59;6283735;28;20496;-83
2021/08/10 04:39:43;;;;;;;3.90;2.40;;;;;;;14.28;100.00;101327.84;6270709;28;20056;-83
2021/08/10 04:42:44;;;;;;;3.90;2.22;;;;;;;14.30;100.00;101327.72;6277820;28;20563;-83
2021/08/10 04:45:46;;;;;;;6.57;2.78;;;;;;;14.30;100.00;101338.31;6277643;28;20053;-83
2021/08/10 04:48:47;;;;;;;6.90;3.03;;;;;;;14.32;100.00;101344.38;6277345;28;20159;-83
2021/08/10 04:51:50;;;;;;;7.22;2.28;;;;;;;14.33;100.00;101341.63;6277476;28;20049;-82
2021/08/10 04:54:51;;;;;;;5.95;2.47;;;;;;;14.35;100.00;101342.41;6277564;28;20411;-83
2021/08/10 04:57:53;;;;;;;5.75;2.47;;;;;;;14.34;100.00;101335.38;6278019;28;20075;-83
2021/08/10 05:00:55;;;;;;;4.00;2.40;;;;;;;14.37;100.00;101334.38;6277393;28;20060;-83
2021/08/10 05:03:57;;;;;;;6.53;2.35;;;;;;;14.40;100.00;101342.13;6276623;28;20052;-83
2021/08/10 05:07:02;;;;;;;7.50;2.83;;;;;;;14.38;100.00;101334.28;6277186;28;20484;-83
2021/08/10 05:10:03;;;;;;;3.75;2.28;;;;;;;14.43;100.00;101332.19;6272374;28;20045;-83
2021/08/10 05:13:05;;;;;;;4.32;2.35;;;;;;;14.39;100.00;101335.13;6267826;28;20064;-83
2021/08/10 05:16:07;;;;;;;6.28;2.28;;;;;;;14.41;100.00;101347.31;6255986;28;20045;-83
2021/08/10 05:19:10;;;;;;;7.13;2.20;;;;;;;14.43;100.00;101345.41;6263524;28;20050;-83
2021/08/10 05:22:14;;;;;;;9.00;2.42;;;;;;;14.43;100.00;101337.50;6255368;28;20520;-82
2021/08/10 05:25:15;;;;;;;7.32;2.33;;;;;;;14.43;100.00;101318.13;6251107;28;20566;-82
2021/08/10 05:28:17;;;;;;;10.13;2.67;;;;;;;14.43;100.00;101318.13;6252663;28;20050;-82
2021/08/10 05:31:18;;;;;;;7.15;2.20;;;;;;;14.43;100.00;101324.25;6252001;28;20053;-83
2021/08/10 05:34:19;;;;;;;4.05;1.92;;;;;;;14.42;100.00;101333.16;6267414;28;20045;-82
2021/08/10 05:37:22;;;;;;;10.18;2.35;;;;;;;14.44;100.00;101335.69;6275941;28;20515;-83
2021/08/10 05:40:23;;;;;;;5.80;2.05;;;;;;;14.47;100.00;101346.09;6275400;28;20502;-83
2021/08/10 05:43:25;;;;;;;4.72;2.15;;;;;;;14.53;100.00;101360.78;6275163;28;20051;-82
2021/08/10 05:46:26;;;;;;;6.10;1.98;;;;;;;14.59;100.00;101355.97;6275839;28;20049;-82
2021/08/10 05:49:27;;;;;;;4.53;2.40;;;;;;;14.62;100.00;101339.91;6282333;28;20052;-82
2021/08/10 05:52:31;;;;;;;3.55;2.10;;;;;;;14.66;100.00;101335.28;6284439;28;20045;-84
2021/08/10 05:55:32;;;;;;;6.90;2.30;;;;;;;14.67;100.00;101332.56;6295359;28;20064;-82
2021/08/10 05:58:33;;;;;;;7.50;2.45;;;;;;;14.68;100.00;101326.31;6283704;28;20045;-83
2021/08/10 06:01:36;;;;;;;5.57;2.08;;;;;;;14.72;100.00;101342.88;6260761;28;20057;-83
2021/08/10 06:04:37;;;;;;;6.57;1.98;;;;;;;14.73;100.00;101351.66;6252510;28;20622;-78
2021/08/10 06:07:40;;;;;;;4.85;2.63;;;;;;;14.74;100.00;101354.19;6271462;28;20045;-79
2021/08/10 06:10:41;;;;;;;5.32;2.28;;;;;;;14.72;100.00;101358.75;6296897;28;20045;-78
2021/08/10 06:13:43;;;;;;;4.20;2.38;;;;;;;14.80;100.00;101372.31;6299153;28;20146;-80
2021/08/10 06:16:44;;;;;;;4.13;2.00;;;;;;;14.75;100.00;101368.25;6301563;28;20048;-81
2021/08/10 06:19:45;;;;;;;8.05;2.65;;;;;;;14.69;100.00;101377.44;6301923;28;20070;-82
2021/08/10 06:22:48;;;;;;;5.47;2.70;;;;;;;14.62;100.00;101376.94;6281534;28;20416;-81
2021/08/10 06:25:50;;;;;;;4.30;2.65;;;;;;;14.55;100.00;101380.91;6279671;28;20053;-81
2021/08/10 06:28:51;;;;;;;9.32;3.40;;;;;;;14.49;100.00;101378.63;6280468;28;20405;-81
2021/08/10 06:31:52;;;;;;;8.20;2.90;;;;;;;14.42;100.00;101371.97;6278561;28;20049;-80
2021/08/10 06:34:54;;;;;;;7.38;3.65;;;;;;;14.37;100.00;101379.31;6281877;28;20543;-81
2021/08/10 06:37:56;;;;;;;9.85;3.75;;;;;;;14.38;100.00;101368.66;6302250;28;20048;-81
2021/08/10 06:40:57;;;;;;;10.57;4.38;;;;;;;14.39;100.00;101372.97;6302816;28;20484;-80
2021/08/10 06:43:59;;;;;;;8.80;3.88;;;;;;;14.42;100.00;101375.47;6302789;28;20053;-80
2021/08/10 06:47:01;;;;;;;10.93;4.78;;;;;;;14.45;100.00;101379.72;6302371;28;20048;-81
2021/08/10 06:50:02;;;;;;;12.48;4.00;;;;;;;14.47;100.00;101372.53;6301556;28;20052;-80
2021/08/10 06:53:05;;;;;;;12.57;4.60;;;;;;;14.41;100.00;101365.81;6302512;28;20044;-81
2021/08/10 06:56:06;;;;;;;11.63;5.05;;;;;;;14.43;100.00;101371.03;6302622;28;20057;-80
2021/08/10 06:59:08;;;;;;;11.68;4.07;;;;;;;14.47;100.00;101364.59;6303528;28;20056;-80
2021/08/10 07:02:09;;;;;;;14.82;4.82;;;;;;;14.46;100.00;101358.47;6303217;28;20049;-81
2021/08/10 07:05:11;;;;;;;8.60;4.68;;;;;;;14.43;100.00;101353.34;6302188;28;20048;-81
2021/08/10 07:08:14;;;;;;;14.18;5.55;;;;;;;14.43;100.00;101353.34;6302041;28;20487;-80
2021/08/10 07:11:16;;;;;;;12.80;5.82;;;;;;;14.46;100.00;101355.81;6296184;28;20132;-80
2021/08/10 07:14:17;;;;;;;9.00;4.78;;;;;;;14.47;100.00;101352.22;6272562;28;20056;-81
2021/08/10 07:17:18;;;;;;;7.63;4.28;;;;;;;14.54;100.00;101349.28;6293233;28;20123;-80
2021/08/10 07:20:20;;;;;;;10.88;4.68;;;;;;;14.59;100.00;101341.91;6300463;28;20044;-81
2021/08/10 07:23:23;;;;;;;12.10;5.15;;;;;;;14.67;100.00;101352.84;6300043;28;20052;-83
2021/08/10 07:26:24;;;;;;;6.25;4.20;;;;;;;14.76;100.00;101343.50;6300555;28;20052;-81
2021/08/10 07:29:26;;;;;;;7.75;4.40;;;;;;;14.79;100.00;101344.16;6301128;28;20447;-81
2021/08/10 07:32:27;;;;;;;12.20;5.63;;;;;;;14.85;100.00;101346.47;6300755;28;20040;-81
2021/08/10 07:35:28;;;;;;;9.30;5.00;;;;;;;14.89;100.00;101347.94;6299757;28;20048;-81
2021/08/10 07:38:31;;;;;;;12.35;4.80;;;;;;;14.87;100.00;101344.56;6301502;28;20673;-81
2021/08/10 07:41:32;;;;;;;9.73;4.60;;;;;;;14.96;100.00;101341.34;6301700;28;20075;-81
2021/08/10 07:44:34;;;;;;;12.13;4.88;;;;;;;14.95;100.00;101342.28;6301662;28;20067;-80
2021/08/10 07:47:35;;;;;;;11.23;5.47;;;;;;;15.05;100.00;101342.56;6299273;28;20403;-81
2021/08/10 07:50:37;;;;;;;11.32;5.07;;;;;;;15.04;100.00;101340.03;6304588;28;20049;-81
2021/08/10 07:53:39;;;;;;;9.63;4.63;;;;;;;15.05;100.00;101341.72;6299744;28;20052;-81
2021/08/10 07:56:41;;;;;;;16.98;5.47;;;;;;;15.04;100.00;101346.16;6299416;28;20099;-82
2021/08/10 07:59:42;;;;;;;9.77;4.80;;;;;;;15.11;100.00;101342.16;6297768;28;20063;-81
2021/08/10 08:02:43;;;;;;;10.35;5.15;;;;;;;15.24;100.00;101336.97;6280881;28;20041;-79
2021/08/10 08:05:45;;;;;;;9.93;4.80;;;;;;;15.29;100.00;101326.91;6279628;28;20053;-79
2021/08/10 08:08:48;;;;;;;9.55;5.82;;;;;;;15.33;100.00;101322.28;6271866;28;20048;-80
2021/08/10 08:11:49;;;;;;;10.43;4.95;;;;;;;15.36;100.00;101319.44;6276785;28;20041;-80
2021/08/10 08:14:50;;;;;;;10.27;4.55;;;;;;;15.41;100.00;101331.44;6278316;28;20045;-80
2021/08/10 08:17:52;;;;;;;9.73;4.50;;;;;;;15.49;100.00;101325.66;6272490;28;20419;-80
2021/08/10 08:20:53;;;;;;;16.05;4.65;;;;;;;15.61;100.00;101327.50;6270769;28;20423;-80
2021/08/10 08:23:56;;;;;;;12.60;5.03;;;;;;;15.65;100.00;101328.19;6271583;28;20052;-80
2021/08/10 08:26:57;;;;;;;10.68;4.97;;;;;;;15.72;100.00;101322.38;6272808;28;20059;-80
2021/08/10 08:30:01;;;;;;;9.07;4.85;;;;;;;15.77;100.00;101324.72;6272350;28;20491;-79
2021/08/10 08:33:02;;;;;;;9.73;4.63;;;;;;;15.80;100.00;101316.56;6271634;28;20168;-79
2021/08/10 08:36:04;;;;;;;7.53;4.60;;;;;;;15.94;100.00;101324.47;6272220;28;20049;-80
2021/08/10 08:39:07;;;;;;;8.98;4.43;;;;;;;16.03;100.00;101317.69;6272031;28;20471;-80
2021/08/10 08:42:11;;;;;;;9.07;5.03;;;;;;;16.08;100.00;101322.66;6273023;28;20052;-79
2021/08/10 08:45:13;;;;;;;10.15;4.50;;;;;;;16.24;100.00;101326.00;6271760;28;20183;-80
2021/08/10 08:48:15;;;;;;;11.73;5.07;;;;;;;16.34;100.00;101316.44;6272330;28;20056;-78
2021/08/10 08:51:23;;;;;;;13.48;4.90;;;;;;;16.46;100.00;101312.13;6271968;28;20076;-78
2021/08/10 08:54:26;;;;;;;10.73;3.88;;;;;;;16.57;100.00;101309.56;6272146;28;20049;-80
2021/08/10 08:57:28;;;;;;;11.18;4.57;;;;;;;16.67;100.00;101318.59;6271723;28;20052;-77
2021/08/10 09:00:30;;;;;;;10.82;4.38;;;;;;;16.71;100.00;101312.13;6272758;28;20049;-78
2021/08/10 09:03:33;;;;;;;11.02;4.20;;;;;;;16.86;99.81;101307.56;6276212;28;20048;-79
2021/08/10 09:06:35;;;;;;;11.35;4.22;;;;;;;16.93;98.25;101292.88;6276545;28;20056;-78
2021/08/10 09:09:38;;;;;;;7.82;4.22;;;;;;;16.96;97.99;101295.34;6276370;28;20060;-79
2021/08/10 09:12:44;;;;;;;8.93;4.18;;;;;;;16.98;96.12;101290.75;6261000;28;20052;-75
2021/08/10 09:15:47;;;;;;;11.32;4.63;;;;;;;17.03;95.93;101284.25;6280135;28;20056;-77
2021/08/10 09:18:48;;;;;;;9.55;4.63;;;;;;;17.18;93.86;101288.47;6259788;28;20054;-79
2021/08/10 09:21:50;;;;;;;9.40;5.05;;;;;;;17.22;92.35;101296.13;6256003;28;20044;-76
2021/08/10 09:24:56;;;;;;;10.98;4.55;;;;;;;17.33;89.80;101299.78;6271392;28;20055;-79
2021/08/10 09:28:05;;;;;;;9.52;4.60;;;;;;;17.42;90.65;101291.16;6292161;28;20040;-85
2021/08/10 09:31:29;;;;;;;10.15;4.85;;;;;;;17.42;91.26;101277.88;6281561;28;20055;-83
2021/08/10 09:34:31;;;;;;;10.10;4.50;;;;;;;17.41;90.63;101289.47;6274981;28;20049;-82
2021/08/10 09:37:32;;;;;;;10.63;5.15;;;;;;;17.44;89.57;101286.56;6278228;28;20061;-84
2021/08/10 09:40:37;;;;;;;11.55;4.80;;;;;;;17.42;89.26;101292.00;6281925;28;20465;-80
2021/08/10 09:43:40;;;;;;;12.98;5.68;;;;;;;17.52;87.73;101286.84;6272295;28;20049;-78
2021/08/10 09:46:49;;;;;;;9.77;5.13;;;;;;;17.68;82.13;101283.91;6276188;28;20458;-78
2021/08/10 09:49:51;;;;;;;8.38;4.70;;;;;;;17.71;85.33;101286.31;6271169;28;20052;-79
2021/08/10 09:52:52;;;;;;;11.23;5.43;;;;;;;17.81;84.30;101282.06;6285048;28;20037;-78
2021/08/10 09:55:57;;;;;;;14.70;5.38;;;;;;;18.04;80.65;101287.47;6270315;28;20053;-77
2021/08/10 09:59:00;;;;;;;10.55;5.38;;;;;;;18.16;81.07;101284.69;6261680;28;20041;-81
2021/08/10 10:02:03;;;;;;;9.18;4.82;;;;;;;18.21;78.00;101279.88;6252978;28;20091;-80
2021/08/10 10:05:05;;;;;;;10.80;5.13;;;;;;;18.35;78.63;101281.50;6250696;28;20049;-75
2021/08/10 10:08:17;;;;;;;8.68;5.00;;;;;;;18.33;73.59;101280.75;6251481;28;20456;-78
2021/08/10 10:11:20;;;;;;;8.27;4.75;;;;;;;18.44;73.21;101270.13;6251697;28;20044;-77
2021/08/10 10:14:22;;;;;;;9.20;4.47;;;;;;;18.54;72.86;101267.59;6271681;28;20063;-78
2021/08/10 10:17:24;;;;;;;10.30;4.82;;;;;;;18.59;73.85;101277.88;6274053;28;20136;-81
2021/08/10 10:20:26;;;;;;;9.90;4.82;;;;;;;18.55;71.74;101279.06;6275076;28;20415;-80
2021/08/10 10:23:31;;;;;;;9.00;4.50;;;;;;;18.47;73.12;101280.50;6274326;28;20068;-80
2021/08/10 10:26:38;;;;;;;9.20;4.47;;;;;;;18.38;74.64;101280.38;6276459;28;20056;-79
2021/08/10 10:29:42;;;;;;;11.07;5.30;;;;;;;18.39;76.35;101279.41;6274495;28;20526;-82
2021/08/10 10:32:44;;;;;;;11.27;4.78;;;;;;;18.63;73.23;101271.34;6274985;28;20045;-77
2021/08/10 10:35:49;;;;;;;9.60;4.82;;;;;;;18.77;72.45;101273.78;6271011;28;20060;-75
2021/08/10 10:38:52;;;;;;;9.90;4.63;;;;;;;18.69;70.78;101266.41;6272745;28;20052;-77
2021/08/10 10:41:57;;;;;;;6.30;3.83;;;;;;;18.82;68.68;101262.78;6272506;28;20053;-77
2021/08/10 10:44:59;;;;;;;8.07;4.40;;;;;;;18.81;69.83;101271.72;6272245;28;20128;-77
2021/08/10 10:48:00;;;;;;;6.70;3.75;;;;;;;18.70;71.59;101259.25;6273249;28;20060;-77
2021/08/10 10:51:03;;;;;;;7.40;3.80;;;;;;;18.64;71.07;101265.88;6273278;28;20056;-76
2021/08/10 10:54:28;;;;;;;9.23;3.95;;;;;;;18.86;71.78;101262.41;6272404;28;20061;-77
2021/08/10 10:57:40;;;;;;;7.47;3.70;;;;;;;19.21;68.45;101264.88;6273053;28;20053;-78
2021/08/10 11:00:41;;;;;;;7.13;3.90;;;;;;;19.47;67.95;101254.72;6272796;28;20405;-78
2021/08/10 11:04:11;;;;;;;8.50;4.10;;;;;;;19.30;68.42;101265.09;6272196;28;20049;-76
2021/08/10 11:07:30;;;;;;;;;;;;;;;19.16;67.21;101255.56;6267784;28;20048;-76
2021/08/10 11:10:43;;;;;;;8.10;4.07;;;;;;;19.19;68.62;101263.31;6265171;28;19927;-77
2021/08/10 11:13:46;;;;;;;7.30;4.32;;;;;;;19.15;70.46;101265.38;6247538;28;20075;-76
2021/08/10 11:17:11;;;;;;;9.05;4.32;;;;;;;19.01;70.17;101252.31;6266293;28;20384;-76
2021/08/10 11:20:23;;;;;;;9.63;4.25;;;;;;;18.97;69.25;101257.03;6272282;28;20049;-76
2021/08/10 11:23:32;;;;;;;7.75;3.33;;;;;;;19.12;68.50;101257.66;6253266;28;20079;-76
2021/08/10 11:26:38;;;;;;;13.73;4.18;;;;;;;19.26;67.90;101257.38;6272276;28;20496;-76
2021/08/10 11:29:43;;;;;;;6.80;3.88;;;;;;;19.15;68.55;101251.19;6271918;28;20045;-77
2021/08/10 11:32:47;;;;;;;9.40;4.05;;;;;;;19.55;65.92;101256.78;6272308;28;20105;-79
2021/08/10 11:35:48;;;;;;;7.35;3.75;;;;;;;19.50;67.24;101259.81;6272331;28;20138;-77
2021/08/10 11:39:09;;;;;;;8.38;4.03;;;;;;;19.22;68.50;101260.41;6273588;28;20048;-77
2021/08/10 11:42:18;;;;;;;7.80;4.22;;;;;;;19.05;70.33;101261.75;6255599;28;20045;-78
2021/08/10 11:45:21;;;;;;;8.82;4.63;;;;;;;19.14;71.83;101254.84;6247240;28;20489;-77
2021/08/10 11:48:23;;;;;;;7.50;4.35;;;;;;;19.96;70.18;101245.31;6247697;28;20060;-77
2021/08/10 11:51:27;;;;;;;10.20;3.72;;;;;;;20.54;66.02;101238.66;6247139;28;20132;-77
2021/08/10 11:54:28;;;;;;;8.73;4.10;;;;;;;20.76;65.15;101241.97;6263059;28;20805;-77
2021/08/10 11:57:30;;;;;;;9.27;4.60;;;;;;;20.41;64.65;101245.00;6273717;28;20056;-78
2021/08/10 12:00:35;;;;;;;8.18;4.18;;;;;;;20.30;64.43;101242.41;6258110;28;20053;-77
2021/08/10 12:03:37;;;;;;;7.43;4.10;;;;;;;20.88;64.25;101240.00;6247155;28;20049;-77
2021/08/10 12:06:38;;;;;;;6.82;3.85;;;;;;;21.13;60.81;101245.84;6247481;28;20057;-76
2021/08/10 12:09:42;;;;;;;10.05;3.88;;;;;;;21.55;60.46;101240.28;6248104;28;20042;-78
2021/08/10 12:12:43;;;;;;;9.02;4.57;;;;;;;21.76;60.79;101241.00;6247805;28;20041;-77
2021/08/10 12:15:46;;;;;;;7.05;4.05;;;;;;;21.56;62.94;101253.50;6249276;28;20049;-76
2021/08/10 12:18:49;;;;;;;7.80;4.28;;;;;;;21.37;59.52;101245.47;6247073;28;20050;-80
2021/08/10 12:21:50;;;;;;;10.98;4.90;;;;;;;21.00;62.05;101233.59;6247251;28;20085;-77
2021/08/10 12:24:54;;;;;;;10.23;4.07;;;;;;;20.64;62.18;101231.50;6256326;28;20052;-77
2021/08/10 12:28:03;;;;;;;6.07;3.70;;;;;;;20.31;63.80;101233.47;6271825;28;20052;-76
2021/08/10 12:31:06;;;;;;;6.25;4.15;;;;;;;20.15;65.12;101228.56;6271776;28;20048;-77
2021/08/10 12:34:07;;;;;;;6.78;4.38;;;;;;;20.32;62.83;101226.28;6271468;28;20049;-77
2021/08/10 12:37:09;;;;;;;6.90;4.13;;;;;;;20.38;63.56;101213.25;6276363;28;20072;-77
2021/08/10 12:40:14;;;;;;;9.18;4.00;;;;;;;21.08;59.95;101222.22;6275736;28;20076;-78
2021/08/10 12:43:16;;;;;;;10.82;4.45;;;;;;;20.98;61.36;101221.31;6276146;28;20423;-76
2021/08/10 12:46:29;;;;;;;8.35;3.72;;;;;;;21.29;60.62;101225.59;6275422;28;20057;-76
2021/08/10 12:49:36;;;;;;;9.20;4.28;;;;;;;21.79;61.10;101221.94;6275674;28;20065;-77
2021/08/10 12:52:43;;;;;;;7.85;3.90;;;;;;;22.27;56.93;101207.66;6275718;28;20045;-76
2021/08/10 12:55:50;;;;;;;7.20;3.95;;;;;;;22.66;55.00;101205.63;6275857;28;20059;-77
2021/08/10 12:58:53;;;;;;;7.03;3.88;;;;;;;22.78;55.12;101201.75;6278443;28;20052;-77
2021/08/10 13:01:57;;;;;;;6.82;4.38;;;;;;;22.38;56.38;101206.63;6254236;28;20049;-77
2021/08/10 13:04:59;;;;;;;6.70;3.88;;;;;;;21.92;57.96;101211.78;6273132;28;20052;-79
2021/08/10 13:08:04;;;;;;;7.80;4.07;;;;;;;21.57;60.71;101203.53;6279191;28;20048;-77
2021/08/10 13:11:20;;;;;;;9.25;3.78;;;;;;;21.11;59.70;101194.34;6279335;28;20135;-78
2021/08/10 13:14:22;;;;;;;6.35;3.42;;;;;;;20.91;61.25;101202.34;6280909;28;20053;-78
2021/08/10 13:17:44;;;;;;;8.57;3.63;;;;;;;20.86;61.36;101190.38;6279248;28;20056;-77
2021/08/10 13:20:49;;;;;;;5.18;3.53;;;;;;;20.92;60.92;101188.00;6267810;28;20059;-78
2021/08/10 13:24:06;;;;;;;10.18;4.03;;;;;;;20.86;61.75;101191.22;6278711;28;20045;-78
2021/08/10 13:27:07;;;;;;;5.15;3.08;;;;;;;20.86;62.36;101182.38;6281632;28;20056;-78
2021/08/10 13:30:21;;;;;;;4.57;3.17;;;;;;;21.03;64.88;101181.69;6282470;28;20052;-78
2021/08/10 13:33:23;;;;;;;5.35;3.00;;;;;;;21.17;59.75;101183.97;6279237;28;20052;-77
2021/08/10 13:36:27;;;;;;;6.05;2.95;;;;;;;21.52;58.88;101178.06;6277109;28;20063;-79
2021/08/10 13:39:28;;;;;;;5.80;2.97;;;;;;;22.28;58.84;101183.41;6278217;28;20056;-79
2021/08/10 13:42:29;;;;;;;5.03;3.25;;;;;;;22.84;55.84;101184.22;6276765;28;20511;-77
2021/08/10 13:45:35;;;;;;;6.00;3.17;;;;;;;22.71;55.11;101181.06;6275545;28;20060;-81
2021/08/10 13:48:38;;;;;;;5.53;3.20;;;;;;;22.38;56.30;101179.84;6271448;28;20045;-79
2021/08/10 13:51:41;;;;;;;5.03;2.90;;;;;;;22.13;55.77;101181.34;6269040;28;20048;-78
2021/08/10 13:54:43;;;;;;;4.70;3.20;;;;;;;22.01;57.75;101173.44;6262313;28;20053;-79
2021/08/10 13:57:44;;;;;;;4.00;2.65;;;;;;;22.36;53.93;101171.13;6275655;28;20072;-76
2021/08/10 14:00:46;;;;;;;5.75;3.15;;;;;;;22.14;56.55;101172.31;6273296;28;20053;-77
2021/08/10 14:03:48;;;;;;;4.78;2.75;;;;;;;21.87;54.49;101178.44;6269754;28;20052;-77
2021/08/10 14:06:50;;;;;;;4.40;2.90;;;;;;;21.69;54.90;101176.50;6256619;28;20056;-78